Time;durP1;ratioP1;P1;durP2;ratioP2;P2;SDS_P1;SDS_P2;PMS_P1;PMS_P2;Temp;Humidity;BMP_temperature;BMP_pressure;BME280_temperature;BME280_humidity;BME280_pressure;Samples;Min_cycle;Max_cycle;Signal;HPM_P1;HPM_P2
2021/05/31 00:00:14;;;;;;;4.20;3.42;;;;;;;;;;5053463;28;20397;-71
2021/05/31 00:02:39;;;;;;;6.00;3.50;;;;;;;;;;5051533;28;20096;-69
2021/05/31 00:05:04;;;;;;;7.47;4.00;;;;;;;;;;5033822;28;20096;-69
2021/05/31 00:07:29;;;;;;;5.15;3.35;;;;;;;;;;5034102;28;20025;-68
2021/05/31 00:09:56;;;;;;;3.88;3.17;;;;;;;;;;5033756;28;20033;-70
2021/05/31 00:12:23;;;;;;;4.63;3.47;;;;;;;;;;5048631;28;20047;-69
2021/05/31 00:14:48;;;;;;;5.95;3.30;;;;;;;;;;5073681;28;20017;-69
2021/05/31 00:17:16;;;;;;;4.10;3.30;;;;;;;;;;5066242;28;20025;-68
2021/05/31 00:19:41;;;;;;;6.32;3.55;;;;;;;;;;5069321;28;20392;-69
2021/05/31 00:22:06;;;;;;;4.85;3.33;;;;;;;;;;5053348;28;20029;-69
2021/05/31 00:24:32;;;;;;;4.73;3.23;;;;;;;;;;5052894;28;20046;-69
2021/05/31 00:26:57;;;;;;;4.97;3.72;;;;;;;;;;5053323;28;20258;-69
2021/05/31 00:29:24;;;;;;;4.28;3.40;;;;;;;;;;5053240;28;20198;-70
2021/05/31 00:31:53;;;;;;;5.00;3.63;;;;;;;;;;5043657;28;20109;-71
2021/05/31 00:34:19;;;;;;;5.40;3.63;;;;;;;;;;5048807;28;20028;-71
2021/05/31 00:36:44;;;;;;;5.70;3.50;;;;;;;;;;5038144;28;20029;-70
2021/05/31 00:39:09;;;;;;;5.47;3.40;;;;;;;;;;5053429;28;20017;-70
2021/05/31 00:41:37;;;;;;;5.40;3.85;;;;;;;;;;5053214;28;20021;-70
2021/05/31 00:44:03;;;;;;;7.35;4.10;;;;;;;;;;5068801;28;20485;-70
2021/05/31 00:46:28;;;;;;;3.90;3.42;;;;;;;;;;5052411;28;20048;-71
2021/05/31 00:48:53;;;;;;;4.53;3.67;;;;;;;;;;5052508;28;20057;-71
2021/05/31 00:51:19;;;;;;;5.97;3.80;;;;;;;;;;5052977;28;20115;-72
2021/05/31 00:53:44;;;;;;;5.65;4.03;;;;;;;;;;5065878;28;20036;-70
2021/05/31 00:56:09;;;;;;;4.80;3.80;;;;;;;;;;5068104;28;20035;-69
2021/05/31 00:58:36;;;;;;;5.28;3.70;;;;;;;;;;5051286;28;20043;-72
2021/05/31 01:01:02;;;;;;;7.40;3.90;;;;;;;;;;5045175;28;20454;-68
2021/05/31 01:03:30;;;;;;;5.57;3.97;;;;;;;;;;5033009;28;20053;-68
2021/05/31 01:06:00;;;;;;;6.90;3.92;;;;;;;;;;5032483;28;20155;-72
2021/05/31 01:08:28;;;;;;;9.73;3.85;;;;;;;;;;5035520;28;20394;-69
2021/05/31 01:10:59;;;;;;;5.55;4.03;;;;;;;;;;5052964;28;20472;-68
2021/05/31 01:13:51;;;;;;;5.07;3.80;;;;;;;;;;5052871;28;20021;-68
2021/05/31 01:16:18;;;;;;;7.07;4.00;;;;;;;;;;5030740;28;20041;-68
2021/05/31 01:18:45;;;;;;;4.60;4.13;;;;;;;;;;5032848;28;20443;-68
2021/05/31 01:21:14;;;;;;;6.65;4.00;;;;;;;;;;5033107;28;20080;-68
2021/05/31 01:23:40;;;;;;;5.28;3.58;;;;;;;;;;5040113;28;20311;-68
2021/05/31 01:26:19;;;;;;;4.93;4.13;;;;;;;;;;5056769;28;20017;-67
2021/05/31 01:29:03;;;;;;;7.32;4.00;;;;;;;;;;5056561;28;20536;-69
2021/05/31 01:31:43;;;;;;;5.65;4.00;;;;;;;;;;5052120;28;20116;-69
2021/05/31 01:34:10;;;;;;;5.70;4.10;;;;;;;;;;5055979;28;20400;-70
2021/05/31 01:36:39;;;;;;;7.82;4.00;;;;;;;;;;5055715;28;20108;-69
2021/05/31 01:39:05;;;;;;;6.80;3.92;;;;;;;;;;5056402;28;20029;-68
2021/05/31 01:41:30;;;;;;;6.93;4.20;;;;;;;;;;5056199;28;20070;-68
2021/05/31 01:43:59;;;;;;;5.15;3.92;;;;;;;;;;5056429;28;20017;-68
2021/05/31 01:46:25;;;;;;;4.68;3.60;;;;;;;;;;5055715;28;20029;-68
2021/05/31 01:48:51;;;;;;;7.82;4.18;;;;;;;;;;5071934;28;20028;-67
2021/05/31 01:51:34;;;;;;;6.38;4.40;;;;;;;;;;5055561;28;20424;-68
2021/05/31 01:54:02;;;;;;;7.55;4.10;;;;;;;;;;5055496;28;20020;-68
2021/05/31 01:56:31;;;;;;;6.22;4.18;;;;;;;;;;5056085;28;20511;-67
2021/05/31 01:58:56;;;;;;;7.43;4.18;;;;;;;;;;5056219;28;20021;-69
2021/05/31 02:01:24;;;;;;;5.93;4.53;;;;;;;;;;5055089;28;20090;-68
2021/05/31 02:03:49;;;;;;;6.72;4.50;;;;;;;;;;5055123;28;20021;-69
2021/05/31 02:06:17;;;;;;;5.53;4.28;;;;;;;;;;5055063;28;20032;-69
2021/05/31 02:08:42;;;;;;;7.15;4.72;;;;;;;;;;5055573;28;20070;-68
2021/05/31 02:11:28;;;;;;;7.75;4.60;;;;;;;;;;5055867;28;20025;-67
2021/05/31 02:13:55;;;;;;;6.70;4.68;;;;;;;;;;5055069;28;20051;-67
2021/05/31 02:16:25;;;;;;;7.90;4.78;;;;;;;;;;5054700;28;20021;-68
2021/05/31 02:18:51;;;;;;;7.20;4.63;;;;;;;;;;5068202;28;20208;-67
2021/05/31 02:21:17;;;;;;;5.65;4.75;;;;;;;;;;5037540;28;20111;-67
2021/05/31 02:23:42;;;;;;;4.97;4.57;;;;;;;;;;5047322;28;20029;-67
2021/05/31 02:26:11;;;;;;;8.23;4.80;;;;;;;;;;5035083;28;20025;-69
2021/05/31 02:28:37;;;;;;;5.97;4.50;;;;;;;;;;5035497;28;20105;-68
2021/05/31 02:31:06;;;;;;;8.63;4.53;;;;;;;;;;5035726;28;20057;-68
2021/05/31 02:33:34;;;;;;;5.28;4.53;;;;;;;;;;5051209;28;20501;-68
2021/05/31 02:36:02;;;;;;;6.28;4.63;;;;;;;;;;5034637;28;20021;-68
2021/05/31 02:38:29;;;;;;;5.82;4.45;;;;;;;;;;5045212;28;20025;-68
2021/05/31 02:40:55;;;;;;;4.97;4.40;;;;;;;;;;5055400;28;20052;-68
2021/05/31 02:43:20;;;;;;;5.30;4.72;;;;;;;;;;5055234;28;20064;-70
2021/05/31 02:45:45;;;;;;;6.47;4.45;;;;;;;;;;5055576;28;20017;-70
2021/05/31 02:48:10;;;;;;;6.60;4.43;;;;;;;;;;5054251;28;20017;-69
2021/05/31 02:50:36;;;;;;;7.70;5.18;;;;;;;;;;5055155;28;20028;-69
2021/05/31 02:53:01;;;;;;;5.55;5.00;;;;;;;;;;5070481;28;20029;-69
2021/05/31 02:55:28;;;;;;;5.45;4.72;;;;;;;;;;5054975;28;20025;-68
2021/05/31 02:57:53;;;;;;;6.72;5.63;;;;;;;;;;5054596;28;20031;-70
2021/05/31 03:00:22;;;;;;;7.00;5.38;;;;;;;;;;5054860;28;20017;-70
2021/05/31 03:02:48;;;;;;;5.10;4.43;;;;;;;;;;5054376;28;20021;-69
2021/05/31 03:05:21;;;;;;;6.05;4.88;;;;;;;;;;5054414;28;20055;-69
2021/05/31 03:07:46;;;;;;;6.20;5.10;;;;;;;;;;5057521;28;20013;-67
2021/05/31 03:10:15;;;;;;;5.75;5.00;;;;;;;;;;5056486;28;20052;-68
2021/05/31 03:12:41;;;;;;;6.95;4.80;;;;;;;;;;5060370;28;20493;-69
2021/05/31 03:15:07;;;;;;;5.97;4.88;;;;;;;;;;5034572;28;20111;-69
2021/05/31 03:17:32;;;;;;;7.32;4.70;;;;;;;;;;5034594;28;20414;-70
2021/05/31 03:19:57;;;;;;;5.88;4.72;;;;;;;;;;5034729;28;20021;-70
2021/05/31 03:22:22;;;;;;;6.15;5.10;;;;;;;;;;5048798;28;20029;-69
2021/05/31 03:24:48;;;;;;;10.13;5.05;;;;;;;;;;5056881;28;20028;-69
2021/05/31 03:27:13;;;;;;;5.05;4.55;;;;;;;;;;5059912;28;20033;-69
2021/05/31 03:29:38;;;;;;;7.68;5.43;;;;;;;;;;5033947;28;20010;-69
2021/05/31 03:32:04;;;;;;;6.65;4.75;;;;;;;;;;5055828;28;20038;-69
2021/05/31 03:34:29;;;;;;;7.65;5.25;;;;;;;;;;5074216;28;20100;-68
2021/05/31 03:36:57;;;;;;;8.27;5.72;;;;;;;;;;5067151;28;20036;-69
2021/05/31 03:39:22;;;;;;;6.85;5.13;;;;;;;;;;5054252;28;20052;-68
2021/05/31 03:41:47;;;;;;;6.97;5.38;;;;;;;;;;5054131;28;20059;-69
2021/05/31 03:44:12;;;;;;;10.38;5.70;;;;;;;;;;5069212;28;20108;-69
2021/05/31 03:46:38;;;;;;;7.88;5.22;;;;;;;;;;5053632;28;20083;-68
2021/05/31 03:49:03;;;;;;;6.15;4.70;;;;;;;;;;5053238;28;20017;-68
2021/05/31 03:51:28;;;;;;;10.30;5.22;;;;;;;;;;5054142;28;20028;-67
2021/05/31 03:53:56;;;;;;;7.78;5.18;;;;;;;;;;5045589;28;20049;-68
2021/05/31 03:56:23;;;;;;;7.65;5.50;;;;;;;;;;5047538;28;20407;-68
2021/05/31 03:58:49;;;;;;;6.93;5.05;;;;;;;;;;5044253;28;20025;-68
2021/05/31 04:01:17;;;;;;;10.70;5.88;;;;;;;;;;5068656;28;20036;-68
2021/05/31 04:03:43;;;;;;;8.05;5.40;;;;;;;;;;5053525;28;20154;-68
2021/05/31 04:06:24;;;;;;;7.75;5.53;;;;;;;;;;5053747;28;20017;-68
2021/05/31 04:11:37;;;;;;;7.55;6.05;;;;;;;;;;5053649;28;20093;-69
2021/05/31 04:14:07;;;;;;;7.05;6.00;;;;;;;;;;5053722;28;20021;-69
2021/05/31 04:16:32;;;;;;;10.27;6.03;;;;;;;;;;5052883;28;20434;-64
2021/05/31 04:19:00;;;;;;;7.05;5.63;;;;;;;;;;5053270;28;20091;-65
2021/05/31 04:21:26;;;;;;;6.03;5.05;;;;;;;;;;5052837;28;20017;-64
2021/05/31 04:23:51;;;;;;;6.55;5.90;;;;;;;;;;5056900;28;20470;-65
2021/05/31 04:26:16;;;;;;;6.70;5.65;;;;;;;;;;5069426;28;20094;-64
2021/05/31 04:28:44;;;;;;;10.05;6.45;;;;;;;;;;5059772;28;20017;-64
2021/05/31 04:31:15;;;;;;;7.72;5.57;;;;;;;;;;5053719;28;20460;-64
2021/05/31 04:33:40;;;;;;;12.60;5.93;;;;;;;;;;5056333;28;20055;-65
2021/05/31 04:36:05;;;;;;;6.28;5.38;;;;;;;;;;5059206;28;20021;-67
2021/05/31 04:38:31;;;;;;;8.00;5.93;;;;;;;;;;5053874;28;20086;-68
2021/05/31 04:40:56;;;;;;;6.30;5.65;;;;;;;;;;5054529;28;20476;-65
2021/05/31 04:43:22;;;;;;;6.32;5.70;;;;;;;;;;5054557;28;20048;-65
2021/05/31 04:45:47;;;;;;;7.28;5.85;;;;;;;;;;5066238;28;20021;-65
2021/05/31 04:48:12;;;;;;;7.07;5.75;;;;;;;;;;5048693;28;20446;-63
2021/05/31 04:50:40;;;;;;;6.68;5.60;;;;;;;;;;5069175;28;20040;-65
2021/05/31 04:53:05;;;;;;;9.05;5.78;;;;;;;;;;5048909;28;20458;-65
2021/05/31 04:55:30;;;;;;;7.95;5.95;;;;;;;;;;5055464;28;20031;-67
2021/05/31 04:57:56;;;;;;;6.93;6.05;;;;;;;;;;5050938;28;20040;-64
2021/05/31 05:00:21;;;;;;;6.80;6.05;;;;;;;;;;5054861;28;20025;-65
2021/05/31 05:02:49;;;;;;;7.53;5.80;;;;;;;;;;5055676;28;20021;-64
2021/05/31 05:05:14;;;;;;;7.78;6.22;;;;;;;;;;5056131;28;20491;-64
2021/05/31 05:07:45;;;;;;;7.00;5.70;;;;;;;;;;5080810;28;20021;-63
2021/05/31 05:10:15;;;;;;;8.77;5.90;;;;;;;;;;5057231;28;20358;-64
2021/05/31 05:12:41;;;;;;;7.78;5.40;;;;;;;;;;5056861;28;20039;-65
2021/05/31 05:15:09;;;;;;;8.10;5.78;;;;;;;;;;5056299;28;20013;-65
2021/05/31 05:17:34;;;;;;;10.70;5.82;;;;;;;;;;5056440;28;20438;-65
2021/05/31 05:20:00;;;;;;;9.80;5.43;;;;;;;;;;5056646;28;20017;-65
2021/05/31 05:22:25;;;;;;;7.20;5.57;;;;;;;;;;5055762;28;20017;-64
2021/05/31 05:24:50;;;;;;;6.40;5.70;;;;;;;;;;5072580;28;20327;-65
2021/05/31 05:27:15;;;;;;;6.63;5.80;;;;;;;;;;5055580;28;20488;-66
2021/05/31 05:29:41;;;;;;;11.02;6.60;;;;;;;;;;5054793;28;20025;-65
2021/05/31 05:32:12;;;;;;;7.50;6.30;;;;;;;;;;5056515;28;20087;-65
2021/05/31 05:34:37;;;;;;;6.57;5.57;;;;;;;;;;5071399;28;20025;-67
2021/05/31 05:37:07;;;;;;;7.50;5.43;;;;;;;;;;5056234;28;20086;-65
2021/05/31 05:49:41;;;;;;;7.93;5.28;;;;;;;;;;5056569;28;20025;-67
2021/05/31 05:52:07;;;;;;;8.90;5.20;;;;;;;;;;5055987;28;20051;-66
2021/05/31 05:54:32;;;;;;;9.15;5.47;;;;;;;;;;5055323;28;20429;-66
2021/05/31 05:56:57;;;;;;;8.07;5.25;;;;;;;;;;5055046;28;20028;-67
2021/05/31 05:59:22;;;;;;;6.00;5.40;;;;;;;;;;5054737;28;20113;-66
2021/05/31 06:01:50;;;;;;;7.63;5.20;;;;;;;;;;5055626;28;20449;-66
2021/05/31 06:04:16;;;;;;;6.03;4.85;;;;;;;;;;5055560;28;20017;-67
2021/05/31 06:06:41;;;;;;;5.38;4.88;;;;;;;;;;5055823;28;20020;-67
2021/05/31 06:09:07;;;;;;;6.55;4.57;;;;;;;;;;5045491;28;20385;-68
2021/05/31 06:11:32;;;;;;;6.35;4.70;;;;;;;;;;5034809;28;20455;-67
2021/05/31 06:13:57;;;;;;;6.30;4.82;;;;;;;;;;5048515;28;20040;-68
2021/05/31 06:16:23;;;;;;;7.20;4.57;;;;;;;;;;5055518;28;20052;-68
2021/05/31 06:18:51;;;;;;;6.57;4.70;;;;;;;;;;5059942;28;20083;-69
2021/05/31 06:21:16;;;;;;;4.80;4.40;;;;;;;;;;5056384;28;20029;-68
2021/05/31 06:23:41;;;;;;;6.47;4.77;;;;;;;;;;5055479;28;20112;-67
2021/05/31 06:26:06;;;;;;;6.13;4.35;;;;;;;;;;5058815;28;20734;-68
2021/05/31 06:28:31;;;;;;;6.93;4.78;;;;;;;;;;5058664;28;20036;-68
2021/05/31 06:30:57;;;;;;;6.60;4.28;;;;;;;;;;5054258;28;20303;-69
2021/05/31 06:33:22;;;;;;;6.03;4.30;;;;;;;;;;5057097;28;20094;-69
2021/05/31 06:35:49;;;;;;;4.65;3.90;;;;;;;;;;5061075;28;20104;-70
2021/05/31 06:38:14;;;;;;;6.30;4.18;;;;;;;;;;5052950;28;20479;-70
2021/05/31 06:40:40;;;;;;;5.22;4.13;;;;;;;;;;5058320;28;20028;-71
2021/05/31 06:43:05;;;;;;;5.68;4.07;;;;;;;;;;5064685;28;20025;-70
2021/05/31 06:45:30;;;;;;;5.47;3.45;;;;;;;;;;5061934;28;20036;-70
2021/05/31 06:47:57;;;;;;;5.38;3.80;;;;;;;;;;5066600;28;20063;-71
2021/05/31 06:50:24;;;;;;;8.80;3.85;;;;;;;;;;5053949;28;20025;-70
2021/05/31 06:52:52;;;;;;;4.97;3.53;;;;;;;;;;5059909;28;20044;-69
2021/05/31 06:55:18;;;;;;;7.28;3.67;;;;;;;;;;5056426;28;20369;-70
2021/05/31 06:57:50;;;;;;;8.68;3.75;;;;;;;;;;5056308;28;20039;-71
2021/05/31 07:00:16;;;;;;;7.10;3.90;;;;;;;;;;5073337;28;20100;-70
2021/05/31 07:02:41;;;;;;;5.03;3.83;;;;;;;;;;5055656;28;20092;-68
2021/05/31 07:05:07;;;;;;;8.52;4.10;;;;;;;;;;5056328;28;20466;-67
2021/05/31 07:07:35;;;;;;;6.80;3.60;;;;;;;;;;5057911;28;20378;-68
2021/05/31 07:10:00;;;;;;;5.72;3.80;;;;;;;;;;5058458;28;20028;-69
2021/05/31 07:12:27;;;;;;;4.65;3.70;;;;;;;;;;5054077;28;20024;-69
2021/05/31 07:14:56;;;;;;;7.18;3.30;;;;;;;;;;5050190;28;20355;-68
2021/05/31 07:17:21;;;;;;;5.47;3.78;;;;;;;;;;5053406;28;20458;-68
2021/05/31 07:19:49;;;;;;;5.25;3.80;;;;;;;;;;5053214;28;20028;-67
2021/05/31 07:22:19;;;;;;;5.88;3.40;;;;;;;;;;5055703;28;20020;-67
2021/05/31 07:24:44;;;;;;;7.10;3.08;;;;;;;;;;5056174;28;20100;-68
2021/05/31 07:27:10;;;;;;;11.05;3.53;;;;;;;;;;5045427;28;20053;-67
2021/05/31 07:29:38;;;;;;;8.20;3.20;;;;;;;;;;5049197;28;20036;-68
2021/05/31 07:32:06;;;;;;;6.78;2.90;;;;;;;;;;5054938;28;20454;-68
2021/05/31 07:34:32;;;;;;;5.78;2.90;;;;;;;;;;5055660;28;20056;-67
2021/05/31 07:36:57;;;;;;;6.53;3.58;;;;;;;;;;5053396;28;20048;-68
2021/05/31 07:39:22;;;;;;;4.65;3.38;;;;;;;;;;5053537;28;20025;-69
2021/05/31 07:41:48;;;;;;;4.60;2.92;;;;;;;;;;5052009;28;20391;-69
2021/05/31 07:44:13;;;;;;;5.32;3.00;;;;;;;;;;5069152;28;20025;-69
2021/05/31 07:46:41;;;;;;;6.20;3.38;;;;;;;;;;5052654;28;20020;-69
2021/05/31 07:49:06;;;;;;;4.50;2.90;;;;;;;;;;5053629;28;20360;-68
2021/05/31 07:51:32;;;;;;;5.17;3.07;;;;;;;;;;5052750;28;20029;-68
2021/05/31 07:54:00;;;;;;;8.38;3.03;;;;;;;;;;5053503;28;20267;-68
2021/05/31 07:56:29;;;;;;;5.22;2.90;;;;;;;;;;5053623;28;20420;-68
2021/05/31 07:58:55;;;;;;;5.20;3.17;;;;;;;;;;5051075;28;20028;-68
2021/05/31 08:01:20;;;;;;;4.65;3.15;;;;;;;;;;5052836;28;20416;-66
2021/05/31 08:03:47;;;;;;;4.28;3.28;;;;;;;;;;5054044;28;20090;-67
2021/05/31 08:06:12;;;;;;;4.60;2.90;;;;;;;;;;5049501;28;20025;-67
2021/05/31 08:08:37;;;;;;;4.60;2.67;;;;;;;;;;5053007;28;20110;-67
2021/05/31 08:11:03;;;;;;;6.40;3.20;;;;;;;;;;5053159;28;20029;-68
2021/05/31 08:13:28;;;;;;;5.45;3.05;;;;;;;;;;5052715;28;20013;-67
2021/05/31 08:15:54;;;;;;;6.05;3.00;;;;;;;;;;5046750;28;20029;-67
2021/05/31 08:18:20;;;;;;;6.90;2.75;;;;;;;;;;5033748;28;20054;-68
2021/05/31 08:20:45;;;;;;;4.05;2.42;;;;;;;;;;5033744;28;20014;-66
2021/05/31 08:23:13;;;;;;;16.55;3.10;;;;;;;;;;5066241;28;20017;-66
2021/05/31 08:25:45;;;;;;;5.05;2.92;;;;;;;;;;5046574;28;20075;-68
2021/05/31 08:28:10;;;;;;;3.88;2.28;;;;;;;;;;5053300;28;20013;-68
2021/05/31 08:30:36;;;;;;;2.70;2.30;;;;;;;;;;5052862;28;20090;-66
2021/05/31 08:33:03;;;;;;;2.60;1.83;;;;;;;;;;5052616;28;20090;-67
2021/05/31 08:35:28;;;;;;;4.03;2.17;;;;;;;;;;5043353;28;20604;-67
2021/05/31 08:37:53;;;;;;;5.13;2.22;;;;;;;;;;5043948;28;20029;-68
2021/05/31 08:40:19;;;;;;;3.45;2.25;;;;;;;;;;5052560;28;20021;-67
2021/05/31 08:42:45;;;;;;;4.00;2.30;;;;;;;;;;5053040;28;20436;-68
2021/05/31 08:45:12;;;;;;;3.65;2.33;;;;;;;;;;5053331;28;20469;-66
2021/05/31 08:47:42;;;;;;;5.28;2.42;;;;;;;;;;5050309;28;20350;-67
2021/05/31 08:50:10;;;;;;;5.35;2.22;;;;;;;;;;5050485;28;20480;-67
2021/05/31 08:52:36;;;;;;;4.03;2.33;;;;;;;;;;5052685;28;20025;-68
2021/05/31 08:55:06;;;;;;;4.93;2.58;;;;;;;;;;5051355;28;20020;-67
2021/05/31 08:57:31;;;;;;;4.28;2.50;;;;;;;;;;5053129;28;20021;-69
2021/05/31 08:59:56;;;;;;;4.63;2.38;;;;;;;;;;5063896;28;20013;-68
2021/05/31 09:02:30;;;;;;;3.43;2.10;;;;;;;;;;5072639;28;20021;-68
2021/05/31 09:04:55;;;;;;;3.03;2.20;;;;;;;;;;5068277;28;20264;-68
2021/05/31 09:07:21;;;;;;;5.63;2.42;;;;;;;;;;5069502;28;20449;-68
2021/05/31 09:09:47;;;;;;;4.05;2.42;;;;;;;;;;5051275;28;20199;-68
2021/05/31 09:12:20;;;;;;;2.85;2.47;;;;;;;;;;5052467;28;20021;-68
2021/05/31 09:14:53;;;;;;;4.25;2.53;;;;;;;;;;5057482;28;20029;-68
2021/05/31 09:17:28;;;;;;;5.45;2.80;;;;;;;;;;5052560;28;20513;-68
2021/05/31 09:19:54;;;;;;;4.77;2.40;;;;;;;;;;5052348;28;20028;-68
2021/05/31 09:22:19;;;;;;;4.05;2.42;;;;;;;;;;5052222;28;20039;-69
2021/05/31 09:24:54;;;;;;;5.65;2.85;;;;;;;;;;5052437;28;20021;-67
2021/05/31 09:27:20;;;;;;;7.80;2.50;;;;;;;;;;5052797;28;20358;-67
2021/05/31 09:29:53;;;;;;;3.40;2.80;;;;;;;;;;5064940;28;20020;-68
2021/05/31 09:32:18;;;;;;;9.32;2.58;;;;;;;;;;5059220;28;20028;-69
2021/05/31 09:34:43;;;;;;;6.33;3.20;;;;;;;;;;5052649;28;20047;-64
2021/05/31 09:37:08;;;;;;;5.27;2.93;;;;;;;;;;5041773;28;20287;-64
2021/05/31 09:39:35;;;;;;;4.45;2.70;;;;;;;;;;5052153;28;20263;-64
2021/05/31 09:42:11;;;;;;;6.30;2.85;;;;;;;;;;5052931;28;20036;-64
2021/05/31 09:44:39;;;;;;;5.97;2.90;;;;;;;;;;5052354;28;20097;-65
2021/05/31 09:47:06;;;;;;;4.25;2.47;;;;;;;;;;5055231;28;20044;-65
2021/05/31 09:49:34;;;;;;;6.88;2.65;;;;;;;;;;5056505;28;20025;-67
2021/05/31 09:52:13;;;;;;;5.30;2.83;;;;;;;;;;5056460;28;20051;-72
2021/05/31 09:54:39;;;;;;;7.20;3.17;;;;;;;;;;5063391;28;20060;-75
2021/05/31 09:57:16;;;;;;;5.40;2.83;;;;;;;;;;5076094;28;20103;-75
2021/05/31 09:59:45;;;;;;;4.95;2.65;;;;;;;;;;5062804;28;20039;-64
2021/05/31 10:02:15;;;;;;;5.28;3.00;;;;;;;;;;5056008;28;20024;-65
2021/05/31 10:05:47;;;;;;;5.90;2.97;;;;;;;;;;5056159;28;20445;-66
2021/05/31 10:07:43;;;;;;;6.00;2.83;;;;;;;;;;5051048;28;20124;-61
2021/05/31 10:10:11;;;;;;;9.18;2.50;;;;;;;;;;5056037;28;20037;-65
2021/05/31 10:12:37;;;;;;;2.95;2.60;;;;;;;;;;5055933;28;20017;-63
2021/05/31 10:15:03;;;;;;;4.45;2.55;;;;;;;;;;5055126;28;20027;-63
2021/05/31 10:17:31;;;;;;;3.35;2.70;;;;;;;;;;5055726;28;20088;-63
2021/05/31 10:19:57;;;;;;;4.25;2.38;;;;;;;;;;5039901;28;20019;-63
2021/05/31 10:22:22;;;;;;;3.88;2.60;;;;;;;;;;5051520;28;20104;-63
2021/05/31 10:24:49;;;;;;;5.50;2.70;;;;;;;;;;5039209;28;20025;-63
2021/05/31 10:27:14;;;;;;;4.97;2.25;;;;;;;;;;5035603;28;20252;-62
2021/05/31 10:29:41;;;;;;;3.35;2.70;;;;;;;;;;5045190;28;20029;-63
2021/05/31 10:32:08;;;;;;;4.95;2.08;;;;;;;;;;5053673;28;20056;-63
2021/05/31 10:34:43;;;;;;;4.13;2.30;;;;;;;;;;5052461;28;20019;-72
2021/05/31 10:37:15;;;;;;;6.50;2.67;;;;;;;;;;5054722;28;20013;-64
2021/05/31 10:39:40;;;;;;;3.30;2.50;;;;;;;;;;5050094;28;20442;-64
2021/05/31 10:42:11;;;;;;;4.93;2.75;;;;;;;;;;5054900;28;20089;-66
2021/05/31 10:44:38;;;;;;;5.63;2.30;;;;;;;;;;5054368;28;20025;-63
2021/05/31 10:47:18;;;;;;;3.33;2.20;;;;;;;;;;5069628;28;20029;-64
2021/05/31 10:49:52;;;;;;;4.03;2.25;;;;;;;;;;5054401;28;20155;-64
2021/05/31 10:52:18;;;;;;;2.80;2.50;;;;;;;;;;5053595;28;20021;-64
2021/05/31 10:54:45;;;;;;;5.07;2.53;;;;;;;;;;5054160;28;20013;-64
2021/05/31 10:57:11;;;;;;;4.30;2.50;;;;;;;;;;5053816;28;20025;-63
2021/05/31 10:59:46;;;;;;;3.42;2.47;;;;;;;;;;5068988;28;20044;-64
2021/05/31 11:02:21;;;;;;;6.18;2.53;;;;;;;;;;5054857;28;20036;-64
2021/05/31 11:04:47;;;;;;;4.45;2.70;;;;;;;;;;5051222;28;20044;-64
2021/05/31 11:07:12;;;;;;;5.97;2.63;;;;;;;;;;5054938;28;20446;-64
2021/05/31 11:09:37;;;;;;;4.60;2.38;;;;;;;;;;5058182;28;20154;-64
2021/05/31 11:12:08;;;;;;;4.13;2.42;;;;;;;;;;5054710;28;20024;-64
2021/05/31 11:14:33;;;;;;;5.38;2.47;;;;;;;;;;5058217;28;20016;-63
2021/05/31 11:17:00;;;;;;;3.85;2.42;;;;;;;;;;5062344;28;20169;-64
2021/05/31 11:19:38;;;;;;;4.15;2.20;;;;;;;;;;5052828;28;20025;-64
2021/05/31 11:22:20;;;;;;;4.57;2.20;;;;;;;;;;5057405;28;20369;-64
2021/05/31 11:24:52;;;;;;;3.50;2.22;;;;;;;;;;5047876;28;20109;-64
2021/05/31 11:27:32;;;;;;;4.57;2.50;;;;;;;;;;5071644;28;20021;-64
2021/05/31 11:29:58;;;;;;;3.67;2.38;;;;;;;;;;5054734;28;20021;-64
2021/05/31 11:32:24;;;;;;;4.40;2.33;;;;;;;;;;5069110;28;20453;-64
2021/05/31 11:34:56;;;;;;;4.28;2.47;;;;;;;;;;5052721;28;20033;-64
2021/05/31 11:37:22;;;;;;;4.25;2.03;;;;;;;;;;5054317;28;20533;-64
2021/05/31 11:39:47;;;;;;;3.47;2.28;;;;;;;;;;5054159;28;20036;-64
2021/05/31 11:42:12;;;;;;;4.97;2.37;;;;;;;;;;5051333;28;20028;-64
2021/05/31 11:44:38;;;;;;;4.63;2.60;;;;;;;;;;5053984;28;20365;-66
2021/05/31 11:47:04;;;;;;;2.95;2.08;;;;;;;;;;5054176;28;20020;-66
2021/05/31 11:49:30;;;;;;;4.82;2.20;;;;;;;;;;5054301;28;20029;-65
2021/05/31 11:51:56;;;;;;;3.53;2.00;;;;;;;;;;5065682;28;20033;-65
2021/05/31 11:54:22;;;;;;;7.63;2.15;;;;;;;;;;5033950;28;20029;-65
2021/05/31 11:56:48;;;;;;;3.88;1.90;;;;;;;;;;5043227;28;20017;-65
2021/05/31 11:59:15;;;;;;;3.15;1.90;;;;;;;;;;5053953;28;20029;-65
2021/05/31 12:01:40;;;;;;;2.50;1.83;;;;;;;;;;5056436;28;20044;-66
2021/05/31 12:04:05;;;;;;;3.03;1.87;;;;;;;;;;5054242;28;20484;-66
2021/05/31 12:06:30;;;;;;;3.20;2.03;;;;;;;;;;5052158;28;20734;-65
2021/05/31 12:08:56;;;;;;;3.00;1.85;;;;;;;;;;5052924;28;20732;-66
2021/05/31 12:11:22;;;;;;;3.35;1.80;;;;;;;;;;5053252;28;20025;-66
2021/05/31 12:13:58;;;;;;;3.90;1.83;;;;;;;;;;5056638;28;20472;-65
2021/05/31 12:16:24;;;;;;;4.75;2.08;;;;;;;;;;5052967;28;20094;-66
2021/05/31 12:18:49;;;;;;;3.70;1.87;;;;;;;;;;5053268;28;20029;-66
2021/05/31 12:21:14;;;;;;;4.00;1.97;;;;;;;;;;5053424;28;20020;-65
2021/05/31 12:23:46;;;;;;;8.30;2.20;;;;;;;;;;5053780;28;20263;-66
2021/05/31 12:26:12;;;;;;;4.25;1.77;;;;;;;;;;5033267;28;20326;-65
2021/05/31 12:28:39;;;;;;;5.27;1.90;;;;;;;;;;5033773;28;20018;-66
2021/05/31 12:31:06;;;;;;;3.22;2.08;;;;;;;;;;5034769;28;20280;-65
2021/05/31 12:33:34;;;;;;;3.22;1.88;;;;;;;;;;5052451;28;20020;-66
2021/05/31 12:36:01;;;;;;;4.10;2.00;;;;;;;;;;5052610;28;20032;-64
2021/05/31 12:38:27;;;;;;;3.33;1.67;;;;;;;;;;5052711;28;20029;-65
2021/05/31 12:40:54;;;;;;;6.10;2.08;;;;;;;;;;5053486;28;20089;-64
2021/05/31 12:43:29;;;;;;;3.70;1.88;;;;;;;;;;5052566;28;20476;-64
2021/05/31 12:45:54;;;;;;;3.58;2.20;;;;;;;;;;5051965;28;20454;-65
2021/05/31 12:48:21;;;;;;;3.33;2.00;;;;;;;;;;5052704;28;20024;-65
2021/05/31 12:50:51;;;;;;;5.35;2.00;;;;;;;;;;5053400;28;20024;-66
2021/05/31 12:53:16;;;;;;;4.57;2.10;;;;;;;;;;5052565;28;20513;-65
2021/05/31 12:55:44;;;;;;;3.40;2.08;;;;;;;;;;5053361;28;20056;-64
2021/05/31 12:58:11;;;;;;;10.50;2.00;;;;;;;;;;5051550;28;20037;-65
2021/05/31 13:00:36;;;;;;;2.38;1.60;;;;;;;;;;5072840;28;20119;-65
2021/05/31 13:03:04;;;;;;;2.90;1.70;;;;;;;;;;5071546;28;20056;-66
2021/05/31 13:05:31;;;;;;;2.42;1.50;;;;;;;;;;5053900;28;20073;-66
2021/05/31 13:07:57;;;;;;;3.05;1.80;;;;;;;;;;5052893;28;20052;-65
2021/05/31 13:10:27;;;;;;;5.03;1.55;;;;;;;;;;5033162;28;20026;-65
2021/05/31 13:13:00;;;;;;;2.65;1.40;;;;;;;;;;5033304;28;20021;-65
2021/05/31 13:15:35;;;;;;;2.13;1.40;;;;;;;;;;5052489;28;20032;-65
2021/05/31 13:18:19;;;;;;;2.65;1.40;;;;;;;;;;5052226;28;20017;-66
2021/05/31 13:20:47;;;;;;;2.35;1.50;;;;;;;;;;5070969;28;20346;-67
2021/05/31 13:23:16;;;;;;;2.97;1.58;;;;;;;;;;5056754;28;20047;-67
2021/05/31 13:25:52;;;;;;;2.53;1.33;;;;;;;;;;5055932;28;20025;-65
2021/05/31 13:28:18;;;;;;;2.65;1.35;;;;;;;;;;5061178;28;20078;-66
2021/05/31 13:30:45;;;;;;;3.42;1.58;;;;;;;;;;5068582;28;20441;-65
2021/05/31 13:33:11;;;;;;;5.25;1.50;;;;;;;;;;5065816;28;20442;-66
2021/05/31 13:35:36;;;;;;;2.83;1.67;;;;;;;;;;5056673;28;20021;-68
2021/05/31 13:38:03;;;;;;;3.00;1.80;;;;;;;;;;5054390;28;20389;-66
2021/05/31 13:40:33;;;;;;;3.55;1.77;;;;;;;;;;5054597;28;20112;-64
2021/05/31 13:43:03;;;;;;;5.03;1.65;;;;;;;;;;5056945;28;20021;-65
2021/05/31 13:45:29;;;;;;;3.83;1.75;;;;;;;;;;5056335;28;20021;-68
2021/05/31 13:47:54;;;;;;;4.30;2.10;;;;;;;;;;5062988;28;20038;-65
2021/05/31 13:50:21;;;;;;;6.03;2.20;;;;;;;;;;5057391;28;20446;-65
2021/05/31 13:52:51;;;;;;;4.50;2.05;;;;;;;;;;5081966;28;20104;-65
2021/05/31 13:55:17;;;;;;;4.03;1.88;;;;;;;;;;5060032;28;20017;-65
2021/05/31 13:57:47;;;;;;;4.78;2.00;;;;;;;;;;5065252;28;20468;-66
2021/05/31 14:00:15;;;;;;;4.80;1.77;;;;;;;;;;5052882;28;20028;-66
2021/05/31 14:02:40;;;;;;;5.32;1.92;;;;;;;;;;5054889;28;20449;-66
2021/05/31 14:05:08;;;;;;;5.00;2.00;;;;;;;;;;5055237;28;20040;-66
2021/05/31 14:07:34;;;;;;;3.35;1.90;;;;;;;;;;5043898;28;20306;-65
2021/05/31 14:09:59;;;;;;;2.85;1.55;;;;;;;;;;5054032;28;20075;-65
2021/05/31 14:12:25;;;;;;;5.65;1.60;;;;;;;;;;5055506;28;20175;-66
2021/05/31 14:14:50;;;;;;;2.95;1.67;;;;;;;;;;5055109;28;20040;-66
2021/05/31 14:17:15;;;;;;;3.67;1.63;;;;;;;;;;5056333;28;20413;-66
2021/05/31 14:19:41;;;;;;;2.27;1.33;;;;;;;;;;5055172;28;20271;-67
2021/05/31 14:22:06;;;;;;;3.57;1.30;;;;;;;;;;5055711;28;20024;-66
2021/05/31 14:24:32;;;;;;;2.53;1.30;;;;;;;;;;5053578;28;20096;-67
2021/05/31 14:26:58;;;;;;;3.28;1.23;;;;;;;;;;5055892;28;20252;-67
2021/05/31 14:29:26;;;;;;;2.13;1.38;;;;;;;;;;5054682;28;20031;-66
2021/05/31 14:31:51;;;;;;;5.30;1.30;;;;;;;;;;5055305;28;20565;-65
2021/05/31 14:34:17;;;;;;;2.20;1.20;;;;;;;;;;5053979;28;20027;-66
2021/05/31 14:36:42;;;;;;;3.93;1.20;;;;;;;;;;5055258;28;20013;-66
2021/05/31 14:39:07;;;;;;;2.87;1.60;;;;;;;;;;5055409;28;20090;-67
2021/05/31 14:41:34;;;;;;;4.13;1.42;;;;;;;;;;5052928;28;20086;-66
2021/05/31 14:43:59;;;;;;;2.47;1.52;;;;;;;;;;5035213;28;20101;-67
2021/05/31 14:46:25;;;;;;;5.40;1.45;;;;;;;;;;5034947;28;20438;-66
2021/05/31 14:48:51;;;;;;;2.13;1.20;;;;;;;;;;5051766;28;20482;-66
2021/05/31 14:51:16;;;;;;;1.83;1.23;;;;;;;;;;5054997;28;20026;-67
2021/05/31 14:53:42;;;;;;;2.83;1.40;;;;;;;;;;5054562;28;20147;-66
2021/05/31 14:56:08;;;;;;;2.22;1.42;;;;;;;;;;5054974;28;20029;-66